Time;durP1;ratioP1;P1;durP2;ratioP2;P2;SDS_P1;SDS_P2;PMS_P1;PMS_P2;Temp;Humidity;BMP_temperature;BMP_pressure;BME280_temperature;BME280_humidity;BME280_pressure;Samples;Min_cycle;Max_cycle;Signal;HPM_P1;HPM_P2
2024/01/25 00:01:43;;;;;;;;;;;;;;;21.89;27.78;97913.97;4954748;29;19957;-81
2024/01/25 00:04:09;;;;;;;;;;;;;;;21.44;27.81;97907.03;4955740;28;19956;-81
2024/01/25 00:06:35;;;;;;;;;;;;;;;20.65;30.28;97896.00;4966697;28;20353;-82
2024/01/25 00:09:02;;;;;;;;;;;;;;;22.28;26.25;97896.53;4969907;28;19925;-80
2024/01/25 00:11:31;;;;;;;;;;;;;;;21.70;26.90;97889.47;4971718;28;19937;-81
2024/01/25 00:13:57;;;;;;;;;;;;;;;22.27;25.95;97900.53;4973610;28;20005;-81
2024/01/25 00:16:23;;;;;;;;;;;;;;;21.93;27.62;97895.94;4974249;28;19950;-81
2024/01/25 00:18:49;;;;;;;;;;;;;;;21.48;27.83;97911.34;4977840;28;19929;-82
2024/01/25 00:21:15;;;;;;;;;;;;;;;21.99;27.20;97915.78;4974528;28;20270;-81
2024/01/25 00:23:41;;;;;;;;;;;;;;;20.37;31.11;97948.50;4974728;28;19933;-81
2024/01/25 00:26:07;;;;;;;;;;;;;;;19.05;33.86;97922.66;4972882;28;19918;-81
2024/01/25 00:28:33;;;;;;;;;;;;;;;18.15;35.51;97932.78;4972434;28;19930;-81
2024/01/25 00:30:59;;;;;;;;;;;;;;;17.64;36.77;97938.72;4974167;28;19926;-82
2024/01/25 00:33:25;;;;;;;;;;;;;;;18.06;35.83;97949.06;4991725;28;19921;-82
2024/01/25 00:35:51;;;;;;;;;;;;;;;19.67;31.56;97928.34;4977505;28;19918;-82
2024/01/25 00:38:18;;;;;;;;;;;;;;;20.47;30.96;97914.13;4955651;28;19974;-82
2024/01/25 00:40:44;;;;;;;;;;;;;;;19.81;33.34;97913.50;4955797;29;19926;-81
2024/01/25 00:43:10;;;;;;;;;;;;;;;19.63;33.85;97923.94;4973945;28;19922;-81
2024/01/25 00:45:36;;;;;;;;;;;;;;;19.67;33.07;97922.75;4972104;28;19937;-81
2024/01/25 00:48:03;;;;;;;;;;;;;;;21.17;30.63;97904.19;4974543;28;19930;-81
2024/01/25 00:50:29;;;;;;;;;;;;;;;20.94;29.97;97910.44;4975881;28;20386;-82
2024/01/25 00:52:55;;;;;;;;;;;;;;;21.88;28.40;97912.38;4983588;28;19961;-82
2024/01/25 00:55:21;;;;;;;;;;;;;;;21.58;30.04;97912.41;4972831;28;19925;-82
2024/01/25 00:57:48;;;;;;;;;;;;;;;21.17;28.96;97910.56;4959855;28;19937;-82
2024/01/25 01:00:14;;;;;;;;;;;;;;;20.54;30.09;97925.22;4970831;28;20361;-83
2024/01/25 01:02:42;;;;;;;;;;;;;;;19.37;34.13;97932.88;4962358;28;20396;-82
2024/01/25 01:05:09;;;;;;;;;;;;;;;19.49;33.30;97913.72;4966814;28;20344;-82
2024/01/25 01:07:35;;;;;;;;;;;;;;;20.58;30.43;97912.03;4979657;28;19922;-82
2024/01/25 01:10:01;;;;;;;;;;;;;;;21.35;28.85;97913.13;4971403;28;20013;-82
2024/01/25 01:12:27;;;;;;;;;;;;;;;20.84;29.10;97914.13;4974719;28;19918;-81
2024/01/25 01:14:53;;;;;;;;;;;;;;;19.84;30.70;97909.88;4974602;28;19962;-81
2024/01/25 01:17:19;;;;;;;;;;;;;;;19.42;34.10;97902.59;4963592;28;19962;-82
2024/01/25 01:19:45;;;;;;;;;;;;;;;19.57;31.18;97906.91;4964411;28;20017;-81
2024/01/25 01:22:11;;;;;;;;;;;;;;;20.39;30.36;97893.13;4962998;28;20346;-81
2024/01/25 01:24:37;;;;;;;;;;;;;;;20.40;28.91;97898.28;4956311;28;19922;-82
2024/01/25 01:27:03;;;;;;;;;;;;;;;20.18;30.27;97896.88;4970756;28;19922;-82
2024/01/25 01:29:29;;;;;;;;;;;;;;;20.52;30.78;97880.22;4969478;28;19926;-82
2024/01/25 01:31:55;;;;;;;;;;;;;;;19.63;31.47;97905.25;4967570;28;19926;-82
2024/01/25 01:34:21;;;;;;;;;;;;;;;20.30;28.83;97909.53;4975522;28;19933;-82
2024/01/25 01:36:47;;;;;;;;;;;;;;;19.73;30.81;97918.34;4954350;28;20366;-82
2024/01/25 01:39:13;;;;;;;;;;;;;;;19.18;31.61;97931.34;4976937;28;19922;-83
2024/01/25 01:41:39;;;;;;;;;;;;;;;17.79;34.00;97898.66;4969119;28;19933;-82
2024/01/25 01:44:05;;;;;;;;;;;;;;;18.36;33.22;97908.53;4976490;28;20342;-83
2024/01/25 01:46:34;;;;;;;;;;;;;;;18.80;32.37;97907.25;4965125;28;19973;-83
2024/01/25 01:49:00;;;;;;;;;;;;;;;20.34;29.82;97910.28;4959735;28;20525;-82
2024/01/25 01:51:26;;;;;;;;;;;;;;;19.86;29.95;97905.47;4973509;28;19929;-82
2024/01/25 01:53:54;;;;;;;;;;;;;;;19.53;31.11;97911.72;4968227;28;19924;-82
2024/01/25 01:56:20;;;;;;;;;;;;;;;19.51;33.18;97916.88;4972245;28;19934;-82
2024/01/25 01:58:47;;;;;;;;;;;;;;;20.64;31.06;97915.94;4961959;28;19922;-82
2024/01/25 02:01:13;;;;;;;;;;;;;;;20.55;29.71;97907.28;4958968;28;19923;-82
2024/01/25 02:03:39;;;;;;;;;;;;;;;20.25;29.62;97904.41;4968219;28;19973;-82
2024/01/25 02:06:06;;;;;;;;;;;;;;;21.67;27.37;97904.28;4966082;28;19954;-82
2024/01/25 02:08:32;;;;;;;;;;;;;;;21.55;27.11;97900.06;4968328;28;20017;-82
2024/01/25 02:10:58;;;;;;;;;;;;;;;21.37;27.64;97901.53;4965461;28;19936;-82
2024/01/25 02:13:26;;;;;;;;;;;;;;;20.33;29.38;97878.81;4969160;28;19918;-82
2024/01/25 02:15:52;;;;;;;;;;;;;;;21.40;27.21;97903.50;4960164;28;19932;-83
2024/01/25 02:18:18;;;;;;;;;;;;;;;20.50;28.48;97908.53;4957974;28;19918;-83
2024/01/25 02:20:44;;;;;;;;;;;;;;;19.82;30.18;97915.88;4963674;28;19929;-83
2024/01/25 02:23:10;;;;;;;;;;;;;;;19.30;29.65;97903.84;4973456;28;19930;-83
2024/01/25 02:25:36;;;;;;;;;;;;;;;19.70;29.79;97896.06;4964587;28;19964;-83
2024/01/25 02:28:02;;;;;;;;;;;;;;;19.37;30.33;97871.66;4970290;28;20378;-83
2024/01/25 02:30:28;;;;;;;;;;;;;;;19.48;30.25;97884.28;4948132;28;19930;-82
2024/01/25 02:32:54;;;;;;;;;;;;;;;19.56;29.17;97883.03;4953785;28;19923;-82
2024/01/25 02:35:20;;;;;;;;;;;;;;;18.93;29.90;97881.38;4961671;28;20326;-83
2024/01/25 02:37:46;;;;;;;;;;;;;;;19.73;28.28;97887.69;4950239;28;19977;-82
2024/01/25 02:40:12;;;;;;;;;;;;;;;19.63;28.20;97874.63;4945276;28;19930;-82
2024/01/25 02:42:38;;;;;;;;;;;;;;;19.46;30.18;97875.56;4953145;28;19965;-82
2024/01/25 02:45:04;;;;;;;;;;;;;;;19.88;29.03;97872.44;4967999;28;19961;-82
2024/01/25 02:47:30;;;;;;;;;;;;;;;19.36;35.01;97875.59;4968491;28;19945;-83
2024/01/25 02:49:56;;;;;;;;;;;;;;;18.37;34.22;97871.19;4966440;28;19926;-82
2024/01/25 02:52:22;;;;;;;;;;;;;;;18.36;34.10;97866.06;4965264;28;19926;-83
2024/01/25 02:54:49;;;;;;;;;;;;;;;18.87;28.94;97871.06;4969272;28;20374;-82
2024/01/25 02:57:15;;;;;;;;;;;;;;;19.71;28.30;97862.25;4971743;28;19948;-82
2024/01/25 02:59:41;;;;;;;;;;;;;;;18.83;30.55;97867.53;4972864;28;20286;-83
2024/01/25 03:02:07;;;;;;;;;;;;;;;19.03;29.09;97869.41;4967733;28;20287;-82
2024/01/25 03:04:33;;;;;;;;;;;;;;;18.53;29.90;97871.59;4967253;28;19926;-81
2024/01/25 03:06:59;;;;;;;;;;;;;;;19.03;30.78;97863.84;4979737;28;20421;-81
2024/01/25 03:09:25;;;;;;;;;;;;;;;18.99;29.75;97871.44;4969246;28;20029;-81
2024/01/25 03:11:51;;;;;;;;;;;;;;;19.95;27.58;97872.38;4976514;28;19965;-81
2024/01/25 03:14:17;;;;;;;;;;;;;;;19.62;28.85;97864.69;4974730;28;19950;-82
2024/01/25 03:16:43;;;;;;;;;;;;;;;18.63;32.36;97872.75;4964032;28;19968;-82
2024/01/25 03:19:10;;;;;;;;;;;;;;;18.76;30.74;97873.91;4981012;28;19960;-82
2024/01/25 03:21:36;;;;;;;;;;;;;;;18.88;31.34;97881.78;4980474;28;19918;-82
2024/01/25 03:24:02;;;;;;;;;;;;;;;19.22;28.46;97876.47;4975283;28;20424;-82
2024/01/25 03:26:28;;;;;;;;;;;;;;;19.18;29.37;97881.25;4975891;28;19922;-82
2024/01/25 03:28:54;;;;;;;;;;;;;;;18.78;32.90;97881.84;4970020;28;19958;-83
2024/01/25 03:31:20;;;;;;;;;;;;;;;19.66;27.02;97881.38;4966624;28;20020;-83
2024/01/25 03:33:46;;;;;;;;;;;;;;;17.99;29.58;97887.94;4969310;28;19926;-83
2024/01/25 03:36:15;;;;;;;;;;;;;;;17.63;37.58;97876.84;4971773;28;19929;-83
2024/01/25 03:38:41;;;;;;;;;;;;;;;17.31;32.40;97884.28;4975586;28;19969;-83
2024/01/25 03:41:07;;;;;;;;;;;;;;;18.79;30.23;97878.66;4959624;28;20405;-83
2024/01/25 03:43:33;;;;;;;;;;;;;;;18.69;28.32;97876.72;4956583;29;19919;-82
2024/01/25 03:45:59;;;;;;;;;;;;;;;18.58;35.83;97867.59;4956692;28;19922;-83
2024/01/25 03:48:25;;;;;;;;;;;;;;;18.52;29.39;97856.13;4960928;28;20429;-82
2024/01/25 03:50:51;;;;;;;;;;;;;;;18.75;31.18;97880.66;4969985;28;19922;-82
2024/01/25 03:53:17;;;;;;;;;;;;;;;19.42;27.67;97872.00;4961433;28;20401;-81
2024/01/25 03:55:44;;;;;;;;;;;;;;;19.11;28.19;97881.31;4967337;28;19922;-82
2024/01/25 03:58:10;;;;;;;;;;;;;;;19.16;30.80;97853.06;4960764;28;20055;-82
2024/01/25 04:00:36;;;;;;;;;;;;;;;19.18;27.47;97876.47;4958414;28;20325;-82
2024/01/25 04:03:02;;;;;;;;;;;;;;;18.23;29.37;97878.78;4962144;28;20325;-82
2024/01/25 04:05:28;;;;;;;;;;;;;;;18.41;28.98;97877.53;4971904;28;19929;-82
2024/01/25 04:07:54;;;;;;;;;;;;;;;17.07;34.41;97871.94;4952847;28;20012;-82
2024/01/25 04:10:20;;;;;;;;;;;;;;;18.58;30.01;97887.06;4952798;28;19930;-82
2024/01/25 04:12:46;;;;;;;;;;;;;;;18.51;30.17;97887.88;4956651;28;20021;-81
2024/01/25 04:15:12;;;;;;;;;;;;;;;18.91;28.01;97894.09;4946707;28;20352;-81
2024/01/25 04:17:38;;;;;;;;;;;;;;;18.53;33.66;97898.59;4967954;28;19929;-81
2024/01/25 04:20:04;;;;;;;;;;;;;;;18.78;32.30;97902.09;4969824;28;19918;-82
2024/01/25 04:22:30;;;;;;;;;;;;;;;19.81;26.73;97899.56;4963525;28;20350;-82
2024/01/25 04:24:56;;;;;;;;;;;;;;;19.38;31.13;97898.25;4984553;28;19981;-81
2024/01/25 04:27:22;;;;;;;;;;;;;;;18.91;32.73;97899.66;4972891;28;19949;-81
2024/01/25 04:29:48;;;;;;;;;;;;;;;18.53;28.80;97909.72;4990867;28;19965;-82
2024/01/25 04:32:14;;;;;;;;;;;;;;;18.92;31.42;97906.81;4962161;28;19949;-82
2024/01/25 04:34:41;;;;;;;;;;;;;;;18.96;28.76;97913.97;4953875;28;19918;-82
2024/01/25 04:37:07;;;;;;;;;;;;;;;20.74;26.90;97895.53;4959654;28;19929;-82
2024/01/25 04:39:33;;;;;;;;;;;;;;;20.18;30.42;97899.66;4964921;28;20019;-82
2024/01/25 04:41:59;;;;;;;;;;;;;;;20.66;25.60;97905.97;4988807;28;19926;-82
2024/01/25 04:44:25;;;;;;;;;;;;;;;19.13;31.67;97895.59;4963165;28;20387;-82
2024/01/25 04:46:53;;;;;;;;;;;;;;;19.18;29.12;97911.88;4966802;28;19925;-82
2024/01/25 04:49:19;;;;;;;;;;;;;;;18.58;30.83;97906.53;4955707;28;20046;-81
2024/01/25 04:51:45;;;;;;;;;;;;;;;17.04;36.31;97914.31;4963815;28;20013;-82
2024/01/25 04:54:12;;;;;;;;;;;;;;;19.36;32.36;97889.53;4970583;28;20000;-82
2024/01/25 04:56:38;;;;;;;;;;;;;;;19.12;27.37;97875.31;4968930;28;19930;-82
2024/01/25 04:59:04;;;;;;;;;;;;;;;18.48;29.23;97899.03;4976439;28;19917;-82
2024/01/25 05:01:30;;;;;;;;;;;;;;;18.40;32.47;97889.06;4960209;28;19958;-82
2024/01/25 05:03:56;;;;;;;;;;;;;;;19.08;28.73;97907.16;4966075;28;19985;-82
2024/01/25 05:06:22;;;;;;;;;;;;;;;18.93;28.73;97867.47;4956227;28;20448;-82
2024/01/25 05:08:48;;;;;;;;;;;;;;;18.56;30.50;97881.13;4966453;28;19954;-82
2024/01/25 05:11:14;;;;;;;;;;;;;;;18.83;27.72;97878.66;4971680;28;19934;-82
2024/01/25 05:13:40;;;;;;;;;;;;;;;19.42;27.26;97899.81;4969585;28;19923;-79
2024/01/25 05:16:06;;;;;;;;;;;;;;;20.09;26.77;97906.91;4964213;28;20416;-78
2024/01/25 05:18:32;;;;;;;;;;;;;;;19.13;29.71;97890.84;4956238;28;20009;-79
2024/01/25 05:20:58;;;;;;;;;;;;;;;19.37;32.12;97916.94;4972752;28;19964;-80
2024/01/25 05:23:24;;;;;;;;;;;;;;;18.10;31.91;97905.41;4948008;28;19930;-80
2024/01/25 05:25:51;;;;;;;;;;;;;;;18.01;32.67;97902.22;4966390;28;19926;-80
2024/01/25 05:28:17;;;;;;;;;;;;;;;18.84;29.18;97900.47;4963132;28;19936;-80
2024/01/25 05:30:43;;;;;;;;;;;;;;;19.37;31.54;97880.00;4956072;28;20346;-80
2024/01/25 05:33:09;;;;;;;;;;;;;;;19.73;27.85;97906.38;4960425;28;20295;-81
2024/01/25 05:35:35;;;;;;;;;;;;;;;19.28;30.27;97897.09;4971580;28;20016;-83
2024/01/25 05:38:01;;;;;;;;;;;;;;;20.03;26.88;97900.97;4970577;28;19984;-81
2024/01/25 05:40:27;;;;;;;;;;;;;;;20.45;26.36;97888.66;4962965;28;21704;-81
2024/01/25 05:42:53;;;;;;;;;;;;;;;19.50;27.58;97890.25;4970877;28;19930;-81
2024/01/25 05:45:21;;;;;;;;;;;;;;;19.96;27.29;97903.81;4965667;28;19922;-81
2024/01/25 05:47:47;;;;;;;;;;;;;;;20.10;28.29;97900.13;4972479;28;19922;-80
2024/01/25 05:50:13;;;;;;;;;;;;;;;19.46;29.19;97895.06;4971257;28;19930;-81
2024/01/25 05:52:39;;;;;;;;;;;;;;;18.94;28.45;97912.78;4968630;28;20125;-81
2024/01/25 05:55:05;;;;;;;;;;;;;;;19.01;28.90;97899.63;4963058;28;19926;-80
2024/01/25 05:57:32;;;;;;;;;;;;;;;18.58;29.47;97904.53;4963586;28;19926;-81
2024/01/25 05:59:58;;;;;;;;;;;;;;;19.17;28.68;97886.03;4966533;28;20245;-83
2024/01/25 06:02:24;;;;;;;;;;;;;;;18.55;36.11;97897.00;4962557;28;19945;-82
2024/01/25 06:04:50;;;;;;;;;;;;;;;18.07;33.86;97890.31;4970648;28;19922;-82
2024/01/25 06:07:16;;;;;;;;;;;;;;;18.82;33.04;97905.66;4983691;28;19961;-81
2024/01/25 06:09:42;;;;;;;;;;;;;;;20.27;27.28;97888.84;4972732;28;19997;-82
2024/01/25 06:12:08;;;;;;;;;;;;;;;19.95;28.01;97903.03;4973911;28;20427;-80
2024/01/25 06:14:34;;;;;;;;;;;;;;;19.25;29.07;97903.50;4974090;28;19926;-82
2024/01/25 06:17:00;;;;;;;;;;;;;;;19.59;31.68;97893.34;4973769;28;19922;-82
2024/01/25 06:19:26;;;;;;;;;;;;;;;19.85;29.13;97887.19;4976020;28;19973;-82
2024/01/25 06:21:52;;;;;;;;;;;;;;;20.08;27.62;97886.59;4977006;28;20330;-82
2024/01/25 06:24:18;;;;;;;;;;;;;;;19.88;27.29;97891.16;4976115;28;19949;-81
2024/01/25 06:26:44;;;;;;;;;;;;;;;19.98;28.07;97893.84;4975659;28;20049;-81
2024/01/25 06:29:10;;;;;;;;;;;;;;;18.77;29.64;97886.59;4964680;28;19950;-82
2024/01/25 06:31:41;;;;;;;;;;;;;;;18.84;30.65;97899.69;4959395;28;19929;-82
2024/01/25 06:34:07;;;;;;;;;;;;;;;18.63;32.06;97893.00;4973945;28;20009;-82
2024/01/25 06:36:33;;;;;;;;;;;;;;;19.39;29.41;97905.44;4961439;28;20001;-82
2024/01/25 06:38:59;;;;;;;;;;;;;;;18.90;29.96;97915.59;4975983;28;19968;-82
2024/01/25 06:41:25;;;;;;;;;;;;;;;20.06;28.34;97907.72;4968834;28;20453;-82
2024/01/25 06:43:51;;;;;;;;;;;;;;;18.91;29.96;97908.00;4973168;28;19928;-82
2024/01/25 06:46:17;;;;;;;;;;;;;;;18.93;30.77;97905.59;4959422;28;19922;-82
2024/01/25 06:48:43;;;;;;;;;;;;;;;19.17;32.76;97919.44;4981637;28;20056;-82
2024/01/25 06:51:09;;;;;;;;;;;;;;;19.04;31.62;97921.06;4996204;28;19924;-83
2024/01/25 06:53:35;;;;;;;;;;;;;;;18.39;32.40;97918.06;4979943;28;19914;-83
2024/01/25 06:56:02;;;;;;;;;;;;;;;19.79;30.11;97927.81;4976497;28;19918;-83
2024/01/25 06:58:28;;;;;;;;;;;;;;;19.24;30.64;97929.72;4976530;28;20047;-82
2024/01/25 07:00:54;;;;;;;;;;;;;;;19.47;31.33;97916.09;4970356;28;20263;-82
2024/01/25 07:03:20;;;;;;;;;;;;;;;19.49;30.72;97919.28;4974772;28;19918;-82
2024/01/25 07:05:47;;;;;;;;;;;;;;;18.72;32.06;97922.41;4967223;28;19911;-81
2024/01/25 07:08:13;;;;;;;;;;;;;;;19.42;30.47;97919.31;4968988;28;19976;-82
2024/01/25 07:10:39;;;;;;;;;;;;;;;19.66;30.51;97923.16;4976618;28;20362;-82
2024/01/25 07:13:06;;;;;;;;;;;;;;;19.10;31.16;97922.25;4976557;28;19914;-82
2024/01/25 07:15:32;;;;;;;;;;;;;;;19.26;31.05;97927.31;4976281;28;19918;-82
2024/01/25 07:17:58;;;;;;;;;;;;;;;19.62;30.13;97931.53;4964146;28;20263;-82
2024/01/25 07:20:24;;;;;;;;;;;;;;;19.01;30.95;97926.66;4973743;28;20012;-82
2024/01/25 07:22:50;;;;;;;;;;;;;;;18.74;31.79;97926.34;4975617;28;19922;-83
2024/01/25 07:25:16;;;;;;;;;;;;;;;19.18;30.83;97934.91;4962629;28;19923;-83
2024/01/25 07:27:45;;;;;;;;;;;;;;;19.51;30.14;97935.59;4971032;28;19923;-82
2024/01/25 07:30:12;;;;;;;;;;;;;;;18.28;32.59;97928.38;4973160;28;19926;-83
2024/01/25 07:32:41;;;;;;;;;;;;;;;18.05;32.14;97936.34;4972182;28;19918;-83
2024/01/25 07:35:10;;;;;;;;;;;;;;;17.76;36.29;97927.22;4972821;28;19918;-82
2024/01/25 07:37:36;;;;;;;;;;;;;;;18.25;31.86;97929.22;4974072;28;20385;-83
2024/01/25 07:40:04;;;;;;;;;;;;;;;16.54;35.99;97918.88;4974929;28;19921;-83
2024/01/25 07:42:30;;;;;;;;;;;;;;;18.22;32.20;97939.13;4974683;28;19973;-83
2024/01/25 07:44:57;;;;;;;;;;;;;;;17.68;33.17;97953.38;4961125;28;19925;-83
2024/01/25 07:47:23;;;;;;;;;;;;;;;18.18;32.06;97932.75;4975825;28;19918;-83
2024/01/25 07:49:49;;;;;;;;;;;;;;;17.82;36.48;97945.06;4957139;28;20001;-83
2024/01/25 07:52:15;;;;;;;;;;;;;;;17.52;37.64;97939.06;4974776;28;20116;-83
2024/01/25 07:54:41;;;;;;;;;;;;;;;18.92;31.82;97943.00;4989653;28;19914;-83
2024/01/25 07:57:07;;;;;;;;;;;;;;;17.80;32.84;97941.91;4974798;28;19948;-83
2024/01/25 07:59:34;;;;;;;;;;;;;;;17.56;34.66;97948.19;4974365;28;20302;-83
2024/01/25 08:02:00;;;;;;;;;;;;;;;18.21;35.07;97968.09;4970050;28;19930;-83
2024/01/25 08:04:26;;;;;;;;;;;;;;;18.19;32.38;97931.59;4972505;28;19923;-83
2024/01/25 08:06:52;;;;;;;;;;;;;;;17.24;37.02;97937.00;4954578;28;19985;-83
2024/01/25 08:09:18;;;;;;;;;;;;;;;15.75;40.97;97979.53;4965291;28;20369;-83
2024/01/25 08:11:44;;;;;;;;;;;;;;;15.89;41.52;97987.97;4971734;28;19944;-83
2024/01/25 08:14:11;;;;;;;;;;;;;;;15.94;40.28;97997.13;4974301;28;19922;-83
2024/01/25 08:16:37;;;;;;;;;;;;;;;15.61;42.30;98012.59;4974564;28;19918;-84
2024/01/25 08:19:04;;;;;;;;;;;;;;;17.63;35.61;97996.22;4975025;28;19914;-84
2024/01/25 08:21:30;;;;;;;;;;;;;;;18.31;34.57;97988.75;4974761;28;19923;-83
2024/01/25 08:23:56;;;;;;;;;;;;;;;17.99;35.67;97993.50;4974292;28;19918;-83
2024/01/25 08:26:22;;;;;;;;;;;;;;;18.87;34.77;97994.25;4979072;28;19957;-83
2024/01/25 08:28:48;;;;;;;;;;;;;;;18.67;33.40;97981.97;4970478;28;19922;-84
2024/01/25 08:31:15;;;;;;;;;;;;;;;18.17;35.09;97988.75;4972735;28;20526;-84
2024/01/25 08:33:44;;;;;;;;;;;;;;;17.19;37.15;97988.09;4966418;28;20294;-84
2024/01/25 08:36:10;;;;;;;;;;;;;;;17.64;36.01;97981.13;4969573;28;19922;-84
2024/01/25 08:38:37;;;;;;;;;;;;;;;18.15;34.97;97978.03;4972256;28;19929;-83
2024/01/25 08:41:04;;;;;;;;;;;;;;;17.06;37.57;97981.28;4966844;28;19926;-83
2024/01/25 08:43:30;;;;;;;;;;;;;;;17.57;37.81;97978.34;4972535;28;19926;-84
2024/01/25 08:45:56;;;;;;;;;;;;;;;17.47;35.82;97972.72;4974583;28;19922;-83
2024/01/25 08:48:22;;;;;;;;;;;;;;;17.83;36.32;97968.84;4973390;28;19929;-83
2024/01/25 08:50:52;;;;;;;;;;;;;;;17.44;36.45;97974.31;4972505;28;19968;-83
2024/01/25 08:53:21;;;;;;;;;;;;;;;19.05;34.03;97971.94;4956930;28;19922;-83
2024/01/25 08:55:48;;;;;;;;;;;;;;;18.09;34.81;97982.38;4973792;28;19919;-83
2024/01/25 08:58:14;;;;;;;;;;;;;;;17.93;35.16;97980.00;4968852;28;19922;-83
2024/01/25 09:00:40;;;;;;;;;;;;;;;16.68;37.67;97989.41;4973313;28;19937;-83
2024/01/25 09:03:06;;;;;;;;;;;;;;;16.72;37.39;97987.44;4971255;28;19918;-83
2024/01/25 09:05:34;;;;;;;;;;;;;;;17.78;35.77;98005.38;4967991;28;19922;-84
2024/01/25 09:08:00;;;;;;;;;;;;;;;17.80;36.61;97987.13;4969500;28;19933;-83
2024/01/25 09:10:26;;;;;;;;;;;;;;;19.13;34.38;97977.09;4965567;28;19926;-84
2024/01/25 09:12:52;;;;;;;;;;;;;;;18.99;33.94;97991.06;4955396;28;19922;-83
2024/01/25 09:15:18;;;;;;;;;;;;;;;19.26;34.21;97980.22;4970506;28;19922;-84
2024/01/25 09:17:45;;;;;;;;;;;;;;;16.85;39.61;97989.50;4972177;28;19926;-83
2024/01/25 09:20:11;;;;;;;;;;;;;;;17.50;36.91;97983.06;4969528;28;19929;-83
2024/01/25 09:22:37;;;;;;;;;;;;;;;18.16;35.45;97984.34;4956757;28;19957;-83
2024/01/25 09:25:04;;;;;;;;;;;;;;;18.00;35.37;97983.97;4968351;28;19922;-83
2024/01/25 09:27:30;;;;;;;;;;;;;;;18.67;33.95;97986.75;4965124;28;19933;-83
2024/01/25 09:29:56;;;;;;;;;;;;;;;18.33;34.82;97978.81;4962544;28;19922;-83
2024/01/25 09:32:22;;;;;;;;;;;;;;;18.82;33.70;97974.41;4965742;28;19933;-83
2024/01/25 09:34:48;;;;;;;;;;;;;;;19.48;32.85;97970.59;4967712;28;19929;-84
2024/01/25 09:37:14;;;;;;;;;;;;;;;19.66;33.25;97982.44;4959479;28;19918;-83
2024/01/25 09:39:40;;;;;;;;;;;;;;;20.24;31.01;97980.88;4956276;28;20376;-84
2024/01/25 09:42:07;;;;;;;;;;;;;;;20.11;31.07;97979.75;4972073;28;20016;-84
2024/01/25 09:44:33;;;;;;;;;;;;;;;20.53;31.14;97980.22;4961465;28;19930;-83
2024/01/25 09:47:03;;;;;;;;;;;;;;;19.22;32.16;97966.31;4966185;28;19922;-83
2024/01/25 09:49:29;;;;;;;;;;;;;;;19.87;30.88;97967.56;4968732;28;19922;-84
2024/01/25 09:51:55;;;;;;;;;;;;;;;18.28;33.70;97983.97;4970030;28;20368;-83
2024/01/25 09:54:21;;;;;;;;;;;;;;;19.28;32.59;97964.69;4964764;28;20374;-84
2024/01/25 09:56:50;;;;;;;;;;;;;;;18.37;34.38;97960.16;4970270;28;20346;-83
2024/01/25 09:59:17;;;;;;;;;;;;;;;19.26;31.81;97972.66;4966578;28;19923;-83
2024/01/25 10:01:43;;;;;;;;;;;;;;;19.21;32.90;97973.06;4960822;28;20275;-84
2024/01/25 10:04:09;;;;;;;;;;;;;;;19.60;30.69;97997.19;4967957;28;19918;-83
2024/01/25 10:06:36;;;;;;;;;;;;;;;18.15;35.56;97997.47;4968795;28;19926;-83
2024/01/25 10:09:03;;;;;;;;;;;;;;;19.21;31.53;97997.31;4947090;28;20393;-83
2024/01/25 10:11:35;;;;;;;;;;;;;;;18.12;35.26;97998.28;4973570;28;19984;-83
2024/01/25 10:14:01;;;;;;;;;;;;;;;18.63;33.87;98004.25;4963535;28;19918;-83
2024/01/25 10:16:27;;;;;;;;;;;;;;;17.49;36.93;98000.88;4961944;28;19934;-83
2024/01/25 10:18:53;;;;;;;;;;;;;;;19.90;30.75;98001.00;4968362;28;19972;-84
2024/01/25 10:21:19;;;;;;;;;;;;;;;20.88;29.93;97997.81;4966686;28;19976;-84
2024/01/25 10:23:46;;;;;;;;;;;;;;;19.90;31.33;98001.00;4968246;28;19927;-84
2024/01/25 10:26:12;;;;;;;;;;;;;;;18.69;32.88;97992.72;4955915;28;19922;-83
2024/01/25 10:28:38;;;;;;;;;;;;;;;18.35;34.57;98004.22;4967568;28;20012;-83
2024/01/25 10:31:04;;;;;;;;;;;;;;;17.23;34.46;97999.19;4975849;28;19968;-83
2024/01/25 10:33:31;;;;;;;;;;;;;;;16.64;38.45;98003.22;4972026;28;19929;-83
2024/01/25 10:36:03;;;;;;;;;;;;;;;18.13;34.28;98016.53;4967617;28;20121;-84
2024/01/25 10:38:34;;;;;;;;;;;;;;;17.81;36.21;98035.09;4970669;28;19926;-83
2024/01/25 10:41:01;;;;;;;;;;;;;;;17.13;35.06;98024.91;4974009;28;20028;-83
2024/01/25 10:43:27;;;;;;;;;;;;;;;16.50;40.71;98031.63;4974657;28;19928;-83
2024/01/25 10:45:57;;;;;;;;;;;;;;;17.94;36.91;98030.78;4970974;28;19922;-84
2024/01/25 10:48:26;;;;;;;;;;;;;;;18.80;32.34;98027.66;4974311;28;20013;-83
2024/01/25 10:50:53;;;;;;;;;;;;;;;17.74;33.31;98021.22;4977160;28;19926;-84
2024/01/25 10:53:19;;;;;;;;;;;;;;;17.79;34.02;98026.38;4976050;28;19932;-83
2024/01/25 10:55:46;;;;;;;;;;;;;;;18.29;33.30;98010.59;4959173;28;19942;-83
2024/01/25 10:58:16;;;;;;;;;;;;;;;19.58;30.78;98002.38;4963091;28;19922;-84
2024/01/25 11:00:48;;;;;;;;;;;;;;;19.74;31.19;98002.69;4939766;29;19918;-83
2024/01/25 11:03:14;;;;;;;;;;;;;;;21.21;27.88;98009.03;4956419;28;19973;-84
2024/01/25 11:05:41;;;;;;;;;;;;;;;20.81;28.02;98001.47;4955577;28;19914;-83
2024/01/25 11:08:16;;;;;;;;;;;;;;;20.09;30.18;98002.47;4956794;29;19922;-84
2024/01/25 11:10:42;;;;;;;;;;;;;;;20.18;32.28;98027.88;4963857;28;19923;-84
2024/01/25 11:13:13;;;;;;;;;;;;;;;18.82;33.28;98030.81;4976322;28;19918;-84
2024/01/25 11:15:39;;;;;;;;;;;;;;;18.28;32.55;98032.00;4959664;28;19918;-84
2024/01/25 11:18:08;;;;;;;;;;;;;;;19.27;30.52;98018.78;4948575;28;20286;-84
2024/01/25 11:20:35;;;;;;;;;;;;;;;18.47;34.46;98014.97;4976384;28;19918;-84
2024/01/25 11:23:04;;;;;;;;;;;;;;;19.07;30.81;98019.63;4965129;28;19972;-84
2024/01/25 11:25:31;;;;;;;;;;;;;;;18.53;31.20;98016.16;4978162;28;19921;-84
2024/01/25 11:27:57;;;;;;;;;;;;;;;18.65;30.85;98014.94;4986661;28;19926;-84
2024/01/25 11:30:25;;;;;;;;;;;;;;;19.05;30.49;98017.25;4975846;28;19918;-84
2024/01/25 11:32:51;;;;;;;;;;;;;;;20.02;30.56;98035.16;4955647;28;20407;-84
2024/01/25 11:35:17;;;;;;;;;;;;;;;20.20;27.95;98035.81;4969912;28;19930;-84
2024/01/25 11:37:44;;;;;;;;;;;;;;;20.47;27.80;98022.91;4972889;28;19922;-84
2024/01/25 11:40:11;;;;;;;;;;;;;;;19.23;29.31;98018.00;4973944;28;20009;-85
2024/01/25 11:42:37;;;;;;;;;;;;;;;18.57;31.70;98011.41;4973497;28;19922;-84
2024/01/25 11:45:05;;;;;;;;;;;;;;;18.26;35.73;98023.28;4974618;28;19946;-83
2024/01/25 11:47:31;;;;;;;;;;;;;;;18.89;30.41;98024.44;4970960;28;20235;-84
2024/01/25 11:49:57;;;;;;;;;;;;;;;18.53;36.50;98040.38;4957083;28;19961;-84
2024/01/25 11:52:23;;;;;;;;;;;;;;;18.50;32.06;98035.63;4956675;29;20366;-83
2024/01/25 11:54:49;;;;;;;;;;;;;;;18.26;31.16;98034.41;4956288;29;19957;-83
2024/01/25 11:57:15;;;;;;;;;;;;;;;18.80;30.16;98029.63;4965517;28;19922;-83
2024/01/25 11:59:41;;;;;;;;;;;;;;;19.75;29.74;98043.25;4966867;28;20388;-83
2024/01/25 12:02:07;;;;;;;;;;;;;;;19.79;30.89;98055.97;4972532;28;19926;-82
2024/01/25 12:04:34;;;;;;;;;;;;;;;18.48;31.51;98036.00;4971794;28;20333;-83
2024/01/25 12:07:00;;;;;;;;;;;;;;;18.55;30.72;98052.69;4967687;28;20365;-83
2024/01/25 12:09:26;;;;;;;;;;;;;;;19.24;29.22;98043.84;4974060;28;19933;-83
2024/01/25 12:11:52;;;;;;;;;;;;;;;19.24;35.20;98041.06;4971306;28;19922;-82
2024/01/25 12:14:18;;;;;;;;;;;;;;;19.30;33.13;98068.06;4974844;28;19919;-83
2024/01/25 12:16:44;;;;;;;;;;;;;;;18.40;32.05;98064.19;4970813;28;19922;-83
2024/01/25 12:19:10;;;;;;;;;;;;;;;17.88;32.37;98052.59;4974165;28;19945;-82
2024/01/25 12:21:36;;;;;;;;;;;;;;;18.05;34.82;98058.56;4966521;28;19922;-83
2024/01/25 12:24:02;;;;;;;;;;;;;;;19.11;29.66;98062.19;4958449;28;19923;-83
2024/01/25 12:26:33;;;;;;;;;;;;;;;18.33;35.13;98059.41;4972082;28;19922;-83
2024/01/25 12:28:59;;;;;;;;;;;;;;;17.63;38.80;98060.06;4971909;28;19958;-82
2024/01/25 12:31:25;;;;;;;;;;;;;;;17.82;33.46;98061.72;4966638;28;20390;-82
2024/01/25 12:33:51;;;;;;;;;;;;;;;18.46;30.91;98052.28;4957106;28;20066;-83
2024/01/25 12:36:17;;;;;;;;;;;;;;;18.41;30.72;98076.91;4955767;28;19972;-83
2024/01/25 12:38:43;;;;;;;;;;;;;;;18.37;31.56;98073.31;4972547;28;19922;-83
2024/01/25 12:41:09;;;;;;;;;;;;;;;17.52;33.97;98072.31;4969395;28;20417;-82
2024/01/25 12:43:35;;;;;;;;;;;;;;;16.35;39.46;98063.19;4941981;28;19933;-81